Ash Flat, Arkansas
Current Conditions -  °F | °C
As of 11:35 AM on Monday 22 Dec 2014 (Local Time) from KBVX Reporting Station
Overcast Overcast  
Wind Chill: 52°   Ceiling: 500
Heat Index: 52°   Visibility: 3mi
Dew Point: 48°   Wind: 9mph
Humidity: 88%   Direction: 150°SSE
Pressure: 29.66"   Gusts: NA
Location:  36.22°N, 91.61°W
Report Text: KBVX 221735Z AUTO 15008KT 3SM OVC005 11/09 A2966 RMK AO1
Loading
Personal Weather Stations






























Interactive Weather Map New forecast layout! Learn more

10-Day Weather Forecast

Advertisements
Track Severe Weather on mobile